createdAt,value
2018-07-09T00:00:01.184Z,0.00
2018-07-09T00:01:01.206Z,0.00
2018-07-09T00:02:01.226Z,0.00
2018-07-09T00:03:01.244Z,0.00
2018-07-09T00:04:01.264Z,0.00
2018-07-09T00:05:01.286Z,0.00
2018-07-09T00:06:01.305Z,0.00
2018-07-09T00:07:01.325Z,0.00
2018-07-09T00:08:01.345Z,0.00
2018-07-09T00:09:01.360Z,0.00
2018-07-09T00:10:01.382Z,0.00
2018-07-09T00:11:01.405Z,0.00
2018-07-09T00:12:01.421Z,0.00
2018-07-09T00:13:01.438Z,0.00
2018-07-09T00:14:01.467Z,0.00
2018-07-09T00:15:01.485Z,0.00
2018-07-09T00:16:01.499Z,0.00
2018-07-09T00:17:01.529Z,0.00
2018-07-09T00:18:01.541Z,0.00
2018-07-09T00:19:01.563Z,0.00
2018-07-09T00:20:01.583Z,0.00
2018-07-09T00:21:01.601Z,0.00
2018-07-09T00:22:01.619Z,0.00
2018-07-09T00:23:01.637Z,0.00
2018-07-09T00:24:01.663Z,0.00
2018-07-09T00:25:01.677Z,0.00
2018-07-09T00:26:01.695Z,0.00
2018-07-09T00:27:01.715Z,0.00
2018-07-09T00:28:01.736Z,0.00
2018-07-09T00:29:01.757Z,0.00
2018-07-09T00:30:01.776Z,0.00
2018-07-09T00:31:01.804Z,0.00
2018-07-09T00:32:01.817Z,0.00
2018-07-09T00:33:01.837Z,0.00
2018-07-09T00:34:01.856Z,0.00
2018-07-09T00:35:01.869Z,0.00
2018-07-09T00:36:01.902Z,0.00
2018-07-09T00:37:01.917Z,0.00
2018-07-09T00:38:01.936Z,0.00
2018-07-09T00:39:01.952Z,0.00
2018-07-09T00:40:01.973Z,0.00
2018-07-09T00:41:01.989Z,0.00
2018-07-09T00:42:02.013Z,0.00
2018-07-09T00:43:02.025Z,0.00
2018-07-09T00:44:02.060Z,0.00
2018-07-09T00:45:02.063Z,0.00
2018-07-09T00:46:02.089Z,0.00
2018-07-09T00:47:02.108Z,0.00
2018-07-09T00:48:02.126Z,0.00
2018-07-09T00:49:02.148Z,0.00
2018-07-09T00:50:02.168Z,0.00
2018-07-09T00:51:02.239Z,0.00
2018-07-09T00:52:02.205Z,0.00
2018-07-09T00:53:02.228Z,0.00
2018-07-09T00:54:02.249Z,0.00
2018-07-09T00:55:02.258Z,0.00
2018-07-09T00:56:02.281Z,0.00
2018-07-09T00:57:02.307Z,0.00
2018-07-09T00:58:02.324Z,0.00
2018-07-09T00:59:02.353Z,0.00
2018-07-09T01:00:02.359Z,0.00
2018-07-09T01:01:02.386Z,0.00
2018-07-09T01:02:02.398Z,0.00
2018-07-09T01:03:02.418Z,0.00
2018-07-09T01:04:02.435Z,0.00
2018-07-09T01:05:02.455Z,0.00
2018-07-09T01:06:02.477Z,0.00
2018-07-09T01:07:02.499Z,0.00
2018-07-09T01:08:02.515Z,0.00
2018-07-09T01:09:02.540Z,0.00
2018-07-09T01:10:02.552Z,0.00
2018-07-09T01:11:02.604Z,0.00
2018-07-09T01:12:02.593Z,0.00
2018-07-09T01:13:02.611Z,0.00
2018-07-09T01:14:02.631Z,0.00
2018-07-09T01:15:02.651Z,0.00
2018-07-09T01:16:02.669Z,0.00
2018-07-09T01:17:02.687Z,0.00
2018-07-09T01:18:02.710Z,0.00
2018-07-09T01:19:02.731Z,0.00
2018-07-09T01:20:02.747Z,0.00
2018-07-09T01:21:02.765Z,0.00
2018-07-09T01:22:02.786Z,0.00
2018-07-09T01:23:02.801Z,0.00
2018-07-09T01:24:02.824Z,0.00
2018-07-09T01:25:02.843Z,0.00
2018-07-09T01:26:02.864Z,0.00
2018-07-09T01:27:02.885Z,0.00
2018-07-09T01:28:02.898Z,0.00
2018-07-09T01:29:02.918Z,0.00
2018-07-09T01:30:02.945Z,0.00
2018-07-09T01:31:02.954Z,0.00
2018-07-09T01:32:02.993Z,0.00
2018-07-09T01:33:02.993Z,0.00
2018-07-09T01:34:03.016Z,0.00
2018-07-09T01:35:03.033Z,0.00
2018-07-09T01:36:03.054Z,0.00
2018-07-09T01:37:03.071Z,0.00
2018-07-09T01:38:03.092Z,0.00
2018-07-09T01:39:03.110Z,0.00
2018-07-09T01:40:03.127Z,0.00
2018-07-09T01:41:03.159Z,0.00
2018-07-09T01:42:03.171Z,0.00
2018-07-09T01:43:03.205Z,0.00
2018-07-09T01:44:03.204Z,0.00
2018-07-09T01:45:03.222Z,0.00
2018-07-09T01:46:03.266Z,0.00
2018-07-09T01:47:03.261Z,0.00
2018-07-09T01:48:03.281Z,0.00
2018-07-09T01:49:03.303Z,0.00
2018-07-09T01:50:03.324Z,0.00
2018-07-09T01:51:03.338Z,0.00
2018-07-09T01:52:03.363Z,0.00
2018-07-09T01:53:03.378Z,0.00
2018-07-09T01:54:03.396Z,0.00
2018-07-09T01:55:03.420Z,0.00
2018-07-09T01:56:03.434Z,0.00
2018-07-09T01:57:03.458Z,0.00
2018-07-09T01:58:03.473Z,0.00
2018-07-09T01:59:03.489Z,0.00
2018-07-09T02:00:03.511Z,0.00
2018-07-09T02:01:03.530Z,0.00
2018-07-09T02:02:03.552Z,0.00
2018-07-09T02:03:03.568Z,0.00
2018-07-09T02:04:03.591Z,0.00
2018-07-09T02:05:03.628Z,0.00
2018-07-09T02:06:03.624Z,0.00
2018-07-09T02:07:03.644Z,0.00
2018-07-09T02:08:03.664Z,0.00
2018-07-09T02:09:03.683Z,0.00
2018-07-09T02:10:03.699Z,0.00
2018-07-09T02:11:03.718Z,0.00
2018-07-09T02:12:03.736Z,0.00
2018-07-09T02:13:03.755Z,0.00
2018-07-09T02:14:03.776Z,0.00
2018-07-09T02:15:03.800Z,0.00
2018-07-09T02:16:03.812Z,0.00
2018-07-09T02:17:03.835Z,0.00
2018-07-09T02:18:03.853Z,0.00
2018-07-09T02:19:03.875Z,0.00
2018-07-09T02:20:03.888Z,0.00
2018-07-09T02:21:03.917Z,0.00
2018-07-09T02:22:03.933Z,0.00
2018-07-09T02:23:03.946Z,0.00
2018-07-09T02:24:03.964Z,0.00
2018-07-09T02:25:03.984Z,0.00
2018-07-09T02:26:04.004Z,0.00
2018-07-09T02:27:04.035Z,0.00
2018-07-09T02:28:04.045Z,0.00
2018-07-09T02:29:04.063Z,0.00
2018-07-09T02:30:04.082Z,0.00
2018-07-09T02:31:04.097Z,0.00
2018-07-09T02:32:04.119Z,0.00
2018-07-09T02:33:04.135Z,0.00
2018-07-09T02:34:04.165Z,0.00
2018-07-09T02:35:04.176Z,0.00
2018-07-09T02:36:04.192Z,0.00
2018-07-09T02:37:04.214Z,0.00
2018-07-09T02:38:04.233Z,0.00
2018-07-09T02:39:04.257Z,0.00
2018-07-09T02:40:04.267Z,0.00
2018-07-09T02:41:04.288Z,0.00
2018-07-09T02:42:04.307Z,0.00
2018-07-09T02:43:04.329Z,0.00
2018-07-09T02:44:04.349Z,0.00
2018-07-09T02:45:04.364Z,0.00
2018-07-09T02:46:04.381Z,0.00
2018-07-09T02:47:04.407Z,0.00
2018-07-09T02:48:04.422Z,0.00
2018-07-09T02:49:04.493Z,0.00
2018-07-09T02:50:04.457Z,0.00
2018-07-09T02:51:04.478Z,0.00
2018-07-09T02:52:04.502Z,0.00
2018-07-09T02:53:04.517Z,0.00
2018-07-09T02:54:04.538Z,0.00
2018-07-09T02:55:04.557Z,0.00
2018-07-09T02:56:04.575Z,0.00
2018-07-09T02:57:04.606Z,0.00
2018-07-09T02:58:04.613Z,5.63
2018-07-09T02:59:04.637Z,5.63
2018-07-09T03:00:04.646Z,5.63
2018-07-09T03:01:04.851Z,5.63
2018-07-09T03:02:04.694Z,5.63
2018-07-09T03:03:04.704Z,5.63
2018-07-09T03:04:04.727Z,5.63
2018-07-09T03:05:04.746Z,5.63
2018-07-09T03:06:04.789Z,5.63
2018-07-09T03:07:04.780Z,5.63
2018-07-09T03:08:04.806Z,5.63
2018-07-09T03:09:04.820Z,5.63
2018-07-09T03:10:04.843Z,5.63
2018-07-09T03:11:04.858Z,5.63
2018-07-09T03:12:04.887Z,5.63
2018-07-09T03:13:04.897Z,5.63
2018-07-09T03:14:04.915Z,5.63
2018-07-09T03:15:04.939Z,5.63
2018-07-09T03:16:04.955Z,5.63
2018-07-09T03:17:04.983Z,5.63
2018-07-09T03:18:05.002Z,5.63
2018-07-09T03:19:05.087Z,5.63
2018-07-09T03:20:05.029Z,5.63
2018-07-09T03:21:05.054Z,5.63
2018-07-09T03:22:05.069Z,5.63
2018-07-09T03:23:05.093Z,5.63
2018-07-09T03:24:05.106Z,5.63
2018-07-09T03:25:05.124Z,5.63
2018-07-09T03:26:05.146Z,11.25
2018-07-09T03:27:05.164Z,11.25
2018-07-09T03:28:05.192Z,11.25
2018-07-09T03:29:05.205Z,11.25
2018-07-09T03:30:05.229Z,11.25
2018-07-09T03:31:05.245Z,11.25
2018-07-09T03:32:05.259Z,11.25
2018-07-09T03:33:05.285Z,11.25
2018-07-09T03:34:05.306Z,11.25
2018-07-09T03:35:05.322Z,11.25
2018-07-09T03:36:05.338Z,11.25
2018-07-09T03:37:05.355Z,16.88
2018-07-09T03:38:05.383Z,16.88
2018-07-09T03:39:05.397Z,16.88
2018-07-09T03:40:05.417Z,22.50
2018-07-09T03:41:05.439Z,22.50
2018-07-09T03:42:05.452Z,22.50
2018-07-09T03:43:05.482Z,28.13
2018-07-09T03:44:05.499Z,28.13
2018-07-09T03:45:05.521Z,33.75
2018-07-09T03:46:05.540Z,33.75
2018-07-09T03:47:05.576Z,33.75
2018-07-09T03:48:05.588Z,33.75
2018-07-09T03:49:05.593Z,33.75
2018-07-09T03:50:05.619Z,39.38
2018-07-09T03:51:05.636Z,39.38
2018-07-09T03:52:05.651Z,45.00
2018-07-09T03:53:05.676Z,50.63
2018-07-09T03:54:05.695Z,61.88
2018-07-09T03:55:05.710Z,61.88
2018-07-09T03:56:05.734Z,61.88
2018-07-09T03:57:05.762Z,61.88
2018-07-09T03:58:05.771Z,67.50
2018-07-09T03:59:05.798Z,73.13
2018-07-09T04:00:05.812Z,78.75
2018-07-09T04:01:05.837Z,78.75
2018-07-09T04:02:05.854Z,78.75
2018-07-09T04:03:05.876Z,73.13
2018-07-09T04:04:05.901Z,73.13
2018-07-09T04:05:05.912Z,73.13
2018-07-09T04:06:05.929Z,73.13
2018-07-09T04:07:05.955Z,78.75
2018-07-09T04:08:05.968Z,78.75
2018-07-09T04:09:06.045Z,78.75
2018-07-09T04:10:06.010Z,73.13
2018-07-09T04:11:06.028Z,73.13
2018-07-09T04:12:06.047Z,67.50
2018-07-09T04:13:06.073Z,67.50
2018-07-09T04:14:06.093Z,61.88
2018-07-09T04:15:06.109Z,61.88
2018-07-09T04:16:06.128Z,67.50
2018-07-09T04:17:06.149Z,73.13
2018-07-09T04:18:06.175Z,84.38
2018-07-09T04:19:06.192Z,90.00
2018-07-09T04:20:06.208Z,101.25
2018-07-09T04:21:06.227Z,112.50
2018-07-09T04:22:06.256Z,123.75
2018-07-09T04:23:06.274Z,129.38
2018-07-09T04:24:06.292Z,140.63
2018-07-09T04:25:06.308Z,146.25
2018-07-09T04:26:06.334Z,157.50
2018-07-09T04:27:06.349Z,163.13
2018-07-09T04:28:06.372Z,174.38
2018-07-09T04:29:06.390Z,180.00
2018-07-09T04:30:06.421Z,191.25
2018-07-09T04:31:06.432Z,208.13
2018-07-09T04:32:06.456Z,241.88
2018-07-09T04:33:06.475Z,281.25
2018-07-09T04:34:06.501Z,292.50
2018-07-09T04:35:06.522Z,286.88
2018-07-09T04:36:06.530Z,241.88
2018-07-09T04:37:06.554Z,168.75
2018-07-09T04:38:06.580Z,140.63
2018-07-09T04:39:06.596Z,135.00
2018-07-09T04:40:06.614Z,146.25
2018-07-09T04:41:06.633Z,157.50
2018-07-09T04:42:06.660Z,168.75
2018-07-09T04:43:06.723Z,168.75
2018-07-09T04:44:06.699Z,163.13
2018-07-09T04:45:06.716Z,168.75
2018-07-09T04:46:06.743Z,191.25
2018-07-09T04:47:06.757Z,196.88
2018-07-09T04:48:06.782Z,196.88
2018-07-09T04:49:06.797Z,213.75
2018-07-09T04:50:06.822Z,208.13
2018-07-09T04:51:06.838Z,208.13
2018-07-09T04:52:06.860Z,191.25
2018-07-09T04:53:06.880Z,202.50
2018-07-09T04:54:06.901Z,241.88
2018-07-09T04:55:06.921Z,258.75
2018-07-09T04:56:06.950Z,253.13
2018-07-09T04:57:06.963Z,258.75
2018-07-09T04:58:06.985Z,253.13
2018-07-09T04:59:07.009Z,472.50
2018-07-09T05:00:07.031Z,275.63
2018-07-09T05:01:07.048Z,281.25
2018-07-09T05:02:07.080Z,315.00
2018-07-09T05:03:07.091Z,354.38
2018-07-09T05:04:07.123Z,433.13
2018-07-09T05:05:07.134Z,388.13
2018-07-09T05:06:07.159Z,438.75
2018-07-09T05:07:07.175Z,348.75
2018-07-09T05:08:07.196Z,528.75
2018-07-09T05:09:07.210Z,478.13
2018-07-09T05:10:07.243Z,303.75
2018-07-09T05:11:07.250Z,360.00
2018-07-09T05:12:07.277Z,646.88
2018-07-09T05:13:07.360Z,607.50
2018-07-09T05:14:07.320Z,1130.63
2018-07-09T05:15:07.358Z,399.38
2018-07-09T05:16:07.365Z,793.13
2018-07-09T05:17:07.387Z,247.50
2018-07-09T05:18:07.406Z,264.38
2018-07-09T05:19:07.438Z,303.75
2018-07-09T05:20:07.449Z,405.00
2018-07-09T05:21:07.468Z,562.50
2018-07-09T05:22:07.533Z,1496.25
2018-07-09T05:23:07.735Z,1738.13
2018-07-09T05:24:07.540Z,1940.63
2018-07-09T05:25:07.550Z,2143.13
2018-07-09T05:26:07.579Z,939.38
2018-07-09T05:27:07.596Z,781.88
2018-07-09T05:28:07.624Z,1985.63
2018-07-09T05:29:07.655Z,1119.38
2018-07-09T05:30:07.667Z,2188.13
2018-07-09T05:31:07.692Z,1726.88
2018-07-09T05:32:07.713Z,2126.25
2018-07-09T05:33:07.741Z,1406.25
2018-07-09T05:34:07.761Z,1546.88
2018-07-09T05:35:07.792Z,1698.75
2018-07-09T05:36:07.811Z,2233.13
2018-07-09T05:37:07.840Z,2334.38
2018-07-09T05:38:07.863Z,2205.00
2018-07-09T05:39:07.892Z,2193.75
2018-07-09T05:40:07.956Z,2086.88
2018-07-09T05:41:07.961Z,2266.88
2018-07-09T05:42:07.991Z,2272.50
2018-07-09T05:43:08.008Z,2311.88
2018-07-09T05:44:08.028Z,2435.63
2018-07-09T05:45:08.049Z,1518.75
2018-07-09T05:46:08.081Z,1597.50
2018-07-09T05:47:08.107Z,984.38
2018-07-09T05:48:08.155Z,1080.00
2018-07-09T05:49:08.155Z,1215.00
2018-07-09T05:50:08.187Z,1575.00
2018-07-09T05:51:08.210Z,691.88
2018-07-09T05:52:08.240Z,742.50
2018-07-09T05:53:08.270Z,2401.88
2018-07-09T05:54:08.300Z,877.50
2018-07-09T05:55:08.328Z,1845.00
2018-07-09T05:56:08.342Z,888.75
2018-07-09T05:57:08.380Z,787.50
2018-07-09T05:58:08.418Z,2626.88
2018-07-09T05:59:08.426Z,1800.00
2018-07-09T06:00:08.452Z,2401.88
2018-07-09T06:01:08.481Z,2553.75
2018-07-09T06:02:08.510Z,2598.75
2018-07-09T06:03:08.551Z,2677.50
2018-07-09T06:04:08.555Z,2688.75
2018-07-09T06:05:08.587Z,2548.13
2018-07-09T06:06:08.620Z,2520.00
2018-07-09T06:07:08.647Z,2593.13
2018-07-09T06:08:08.666Z,2643.75
2018-07-09T06:09:08.690Z,2638.13
2018-07-09T06:10:08.727Z,2632.50
2018-07-09T06:11:08.784Z,2700.00
2018-07-09T06:12:08.778Z,2671.88
2018-07-09T06:13:08.816Z,2610.00
2018-07-09T06:14:08.841Z,2581.88
2018-07-09T06:15:08.868Z,2576.25
2018-07-09T06:16:08.896Z,2643.75
2018-07-09T06:17:08.923Z,2705.63
2018-07-09T06:18:08.957Z,2790.00
2018-07-09T06:19:08.984Z,2683.13
2018-07-09T06:20:09.009Z,2643.75
2018-07-09T06:21:09.056Z,2593.13
2018-07-09T06:22:09.082Z,2418.75
2018-07-09T06:23:09.113Z,2486.25
2018-07-09T06:24:09.136Z,2559.38
2018-07-09T06:25:09.182Z,2503.13
2018-07-09T06:26:09.193Z,2553.75
2018-07-09T06:27:09.220Z,2570.63
2018-07-09T06:28:09.262Z,2418.75
2018-07-09T06:29:09.278Z,2390.63
2018-07-09T06:30:09.325Z,2531.25
2018-07-09T06:31:09.347Z,2553.75
2018-07-09T06:32:09.379Z,2469.38
2018-07-09T06:33:09.405Z,2441.25
2018-07-09T06:34:09.452Z,2356.88
2018-07-09T06:35:09.465Z,2396.25
2018-07-09T06:36:09.507Z,2508.75
2018-07-09T06:37:09.533Z,2632.50
2018-07-09T06:38:09.573Z,2542.50
2018-07-09T06:39:09.593Z,2486.25
2018-07-09T06:40:09.632Z,2542.50
2018-07-09T06:41:09.645Z,2497.50
2018-07-09T06:42:09.697Z,2272.50
2018-07-09T06:43:09.709Z,1985.63
2018-07-09T06:44:09.737Z,2250.00
2018-07-09T06:45:09.779Z,2508.75
2018-07-09T06:46:09.810Z,2463.75
2018-07-09T06:47:09.837Z,2503.13
2018-07-09T06:48:09.865Z,2638.13
2018-07-09T06:49:09.894Z,2688.75
2018-07-09T06:50:09.998Z,2666.25
2018-07-09T06:51:09.965Z,2632.50
2018-07-09T06:52:09.988Z,2688.75
2018-07-09T06:53:10.016Z,2728.13
2018-07-09T06:54:10.049Z,2784.38
2018-07-09T06:55:10.085Z,2795.63
2018-07-09T06:56:10.123Z,2902.50
2018-07-09T06:57:10.142Z,2778.75
2018-07-09T06:58:10.167Z,2340.00
2018-07-09T06:59:10.210Z,2300.63
2018-07-09T07:00:10.246Z,2452.50
2018-07-09T07:01:10.268Z,2666.25
2018-07-09T07:02:10.305Z,2773.13
2018-07-09T07:03:10.344Z,2716.88
2018-07-09T07:04:10.367Z,2593.13
2018-07-09T07:05:10.391Z,2610.00
2018-07-09T07:06:10.419Z,2711.25
2018-07-09T07:07:10.477Z,2868.75
2018-07-09T07:08:10.482Z,2851.88
2018-07-09T07:09:10.657Z,2761.88
2018-07-09T07:10:10.563Z,2160.00
2018-07-09T07:11:10.588Z,3268.13
2018-07-09T07:12:10.616Z,3206.25
2018-07-09T07:13:10.650Z,815.63
2018-07-09T07:14:10.677Z,995.63
2018-07-09T07:15:10.731Z,2835.00
2018-07-09T07:16:10.730Z,3015.00
2018-07-09T07:17:10.769Z,646.88
2018-07-09T07:18:10.797Z,3144.38
2018-07-09T07:19:10.844Z,3166.88
2018-07-09T07:20:10.857Z,3211.88
2018-07-09T07:21:10.885Z,759.38
2018-07-09T07:22:10.914Z,843.75
2018-07-09T07:23:10.944Z,3183.75
2018-07-09T07:24:10.966Z,3093.75
2018-07-09T07:25:11.000Z,3155.63
2018-07-09T07:26:11.033Z,3150.00
2018-07-09T07:27:11.076Z,3071.25
2018-07-09T07:28:11.102Z,3138.75
2018-07-09T07:29:11.116Z,1991.25
2018-07-09T07:30:11.144Z,2463.75
2018-07-09T07:31:11.170Z,2733.75
2018-07-09T07:32:11.218Z,2739.38
2018-07-09T07:33:11.233Z,2767.50
2018-07-09T07:34:11.257Z,3240.00
2018-07-09T07:35:11.288Z,3161.25
2018-07-09T07:36:11.319Z,2812.50
2018-07-09T07:37:11.344Z,2970.00
2018-07-09T07:38:11.373Z,2812.50
2018-07-09T07:39:11.409Z,2801.25
2018-07-09T07:40:11.433Z,2711.25
2018-07-09T07:41:11.464Z,2711.25
2018-07-09T07:42:11.494Z,2953.13
2018-07-09T07:43:11.528Z,2891.25
2018-07-09T07:44:11.564Z,2784.38
2018-07-09T07:45:11.576Z,2778.75
2018-07-09T07:46:11.609Z,2818.13
2018-07-09T07:47:11.637Z,3015.00
2018-07-09T07:48:11.670Z,2992.50
2018-07-09T07:49:11.702Z,2806.88
2018-07-09T07:50:11.794Z,2790.00
2018-07-09T07:51:11.765Z,2761.88
2018-07-09T07:52:11.810Z,2581.88
2018-07-09T07:53:11.822Z,2683.13
2018-07-09T07:54:11.852Z,2688.75
2018-07-09T07:55:11.873Z,2778.75
2018-07-09T07:56:11.917Z,2745.00
2018-07-09T07:57:11.943Z,1771.88
2018-07-09T07:58:11.978Z,2694.38
2018-07-09T07:59:12.008Z,2683.13
2018-07-09T08:00:12.031Z,2638.13
2018-07-09T08:01:12.085Z,2632.50
2018-07-09T08:02:12.089Z,2655.00
2018-07-09T08:03:12.119Z,2626.88
2018-07-09T08:04:12.143Z,2525.63
2018-07-09T08:05:12.179Z,2559.38
2018-07-09T08:06:12.211Z,2553.75
2018-07-09T08:07:12.240Z,2694.38
2018-07-09T08:08:12.264Z,2851.88
2018-07-09T08:09:12.321Z,2812.50
2018-07-09T08:10:12.357Z,2666.25
2018-07-09T08:11:12.364Z,2666.25
2018-07-09T08:13:00.551Z,2733.75
2018-07-09T08:13:27.990Z,2660.63
2018-07-09T08:14:12.451Z,2773.13
2018-07-09T08:15:12.475Z,2745.00
2018-07-09T08:16:12.520Z,2593.13
2018-07-09T08:17:12.541Z,2503.13
2018-07-09T08:18:12.567Z,2351.25
2018-07-09T08:19:12.637Z,2323.13
2018-07-09T08:20:12.633Z,2480.63
2018-07-09T08:21:12.660Z,2587.50
2018-07-09T08:22:12.719Z,2581.88
2018-07-09T08:23:12.719Z,2576.25
2018-07-09T08:24:12.777Z,2407.50
2018-07-09T08:25:12.808Z,2295.00
2018-07-09T08:26:12.808Z,2289.38
2018-07-09T08:27:12.849Z,2317.50
2018-07-09T08:28:12.864Z,2385.00
2018-07-09T08:29:12.898Z,2401.88
2018-07-09T08:30:12.918Z,2542.50
2018-07-09T08:31:13.119Z,2587.50
2018-07-09T08:32:12.979Z,2480.63
2018-07-09T08:33:13.021Z,2390.63
2018-07-09T08:34:13.031Z,2261.25
2018-07-09T08:35:13.072Z,2126.25
2018-07-09T08:36:13.106Z,2115.00
2018-07-09T08:37:13.123Z,1805.63
2018-07-09T08:38:13.149Z,866.25
2018-07-09T08:39:13.179Z,461.25
2018-07-09T08:40:13.205Z,444.38
2018-07-09T08:41:13.231Z,416.25
2018-07-09T08:42:13.267Z,399.38
2018-07-09T08:43:13.290Z,382.50
2018-07-09T08:44:13.313Z,376.88
2018-07-09T08:45:13.340Z,371.25
2018-07-09T08:46:13.388Z,371.25
2018-07-09T08:47:13.394Z,371.25
2018-07-09T08:48:13.424Z,371.25
2018-07-09T08:49:13.457Z,371.25
2018-07-09T08:50:13.471Z,382.50
2018-07-09T08:51:13.503Z,438.75
2018-07-09T08:52:13.521Z,478.13
2018-07-09T08:53:13.542Z,405.00
2018-07-09T08:54:13.577Z,382.50
2018-07-09T08:55:13.621Z,388.13
2018-07-09T08:56:13.631Z,410.63
2018-07-09T08:57:13.649Z,506.25
2018-07-09T08:58:13.673Z,528.75
2018-07-09T08:59:13.710Z,568.13
2018-07-09T09:00:13.731Z,658.13
2018-07-09T09:01:13.765Z,742.50
2018-07-09T09:02:13.781Z,708.75
2018-07-09T09:03:13.807Z,680.63
2018-07-09T09:04:13.829Z,770.63
2018-07-09T09:05:13.857Z,781.88
2018-07-09T09:06:13.884Z,720.00
2018-07-09T09:07:13.923Z,765.00
2018-07-09T09:08:13.949Z,759.38
2018-07-09T09:09:13.958Z,708.75
2018-07-09T09:10:14.026Z,680.63
2018-07-09T09:11:14.008Z,618.75
2018-07-09T09:12:14.034Z,607.50
2018-07-09T09:13:14.053Z,618.75
2018-07-09T09:14:14.107Z,635.63
2018-07-09T09:15:14.108Z,624.38
2018-07-09T09:16:14.128Z,556.88
2018-07-09T09:17:14.152Z,568.13
2018-07-09T09:18:14.180Z,624.38
2018-07-09T09:19:14.199Z,630.00
2018-07-09T09:20:14.223Z,630.00
2018-07-09T09:21:14.268Z,663.75
2018-07-09T09:22:14.274Z,680.63
2018-07-09T09:23:14.308Z,697.50
2018-07-09T09:24:14.331Z,742.50
2018-07-09T09:25:14.349Z,736.88
2018-07-09T09:26:14.389Z,742.50
2018-07-09T09:27:14.403Z,742.50
2018-07-09T09:28:14.422Z,731.25
2018-07-09T09:29:14.445Z,725.63
2018-07-09T09:30:14.478Z,815.63
2018-07-09T09:31:14.583Z,804.38
2018-07-09T09:32:14.539Z,742.50
2018-07-09T09:33:14.570Z,753.75
2018-07-09T09:34:14.578Z,753.75
2018-07-09T09:35:14.617Z,736.88
2018-07-09T09:36:14.635Z,731.25
2018-07-09T09:37:14.659Z,731.25
2018-07-09T09:38:14.674Z,714.38
2018-07-09T09:39:14.697Z,691.88
2018-07-09T09:40:14.748Z,675.00
2018-07-09T09:41:14.749Z,675.00
2018-07-09T09:42:14.770Z,759.38
2018-07-09T09:43:14.896Z,720.00
2018-07-09T09:44:14.820Z,759.38
2018-07-09T09:45:14.856Z,736.88
2018-07-09T09:46:14.876Z,742.50
2018-07-09T09:47:14.904Z,731.25
2018-07-09T09:48:14.936Z,736.88
2018-07-09T09:49:14.974Z,781.88
2018-07-09T09:50:14.975Z,720.00
2018-07-09T09:51:15.000Z,708.75
2018-07-09T09:52:15.033Z,720.00
2018-07-09T09:53:15.047Z,703.13
2018-07-09T09:54:15.087Z,720.00
2018-07-09T09:55:15.109Z,720.00
2018-07-09T09:56:15.143Z,703.13
2018-07-09T09:57:15.149Z,736.88
2018-07-09T09:58:15.174Z,787.50
2018-07-09T09:59:15.207Z,804.38
2018-07-09T10:00:15.238Z,860.63
2018-07-09T10:01:15.259Z,838.13
2018-07-09T10:02:15.288Z,781.88
2018-07-09T10:03:15.304Z,680.63
2018-07-09T10:04:15.326Z,680.63
2018-07-09T10:05:15.364Z,635.63
2018-07-09T10:06:15.381Z,641.25
2018-07-09T10:07:15.422Z,663.75
2018-07-09T10:08:15.432Z,675.00
2018-07-09T10:09:15.460Z,635.63
2018-07-09T10:10:15.482Z,635.63
2018-07-09T10:11:15.524Z,669.38
2018-07-09T10:12:15.546Z,708.75
2018-07-09T10:13:15.558Z,731.25
2018-07-09T10:14:15.579Z,759.38
2018-07-09T10:15:15.614Z,804.38
2018-07-09T10:16:15.634Z,832.50
2018-07-09T10:17:15.669Z,900.00
2018-07-09T10:18:15.681Z,894.38
2018-07-09T10:19:15.716Z,894.38
2018-07-09T10:20:15.748Z,888.75
2018-07-09T10:21:15.770Z,860.63
2018-07-09T10:22:15.796Z,804.38
2018-07-09T10:23:15.855Z,821.25
2018-07-09T10:24:15.836Z,787.50
2018-07-09T10:25:15.866Z,821.25
2018-07-09T10:26:15.887Z,838.13
2018-07-09T10:27:15.930Z,826.88
2018-07-09T10:28:15.945Z,787.50
2018-07-09T10:29:15.964Z,759.38
2018-07-09T10:30:15.986Z,742.50
2018-07-09T10:31:16.016Z,748.13
2018-07-09T10:32:16.040Z,787.50
2018-07-09T10:33:16.106Z,804.38
2018-07-09T10:34:16.087Z,776.25
2018-07-09T10:35:16.124Z,725.63
2018-07-09T10:36:16.146Z,708.75
2018-07-09T10:37:16.164Z,720.00
2018-07-09T10:38:16.194Z,759.38
2018-07-09T10:39:16.215Z,742.50
2018-07-09T10:40:16.247Z,765.00
2018-07-09T10:41:16.276Z,793.13
2018-07-09T10:42:16.291Z,821.25
2018-07-09T10:43:16.317Z,843.75
2018-07-09T10:44:16.355Z,843.75
2018-07-09T10:45:16.377Z,843.75
2018-07-09T10:46:16.408Z,821.25
2018-07-09T10:47:16.427Z,798.75
2018-07-09T10:48:16.449Z,821.25
2018-07-09T10:49:16.483Z,866.25
2018-07-09T10:50:16.503Z,894.38
2018-07-09T10:51:16.531Z,894.38
2018-07-09T10:52:16.552Z,849.38
2018-07-09T10:53:16.576Z,781.88
2018-07-09T10:54:16.598Z,748.13
2018-07-09T10:55:16.705Z,669.38
2018-07-09T10:56:16.655Z,556.88
2018-07-09T10:57:16.680Z,450.00
2018-07-09T10:58:16.700Z,393.75
2018-07-09T10:59:16.732Z,376.88
2018-07-09T11:00:16.749Z,371.25
2018-07-09T11:01:16.778Z,360.00
2018-07-09T11:02:16.810Z,337.50
2018-07-09T11:03:16.823Z,320.63
2018-07-09T11:04:16.852Z,315.00
2018-07-09T11:05:16.871Z,315.00
2018-07-09T11:06:16.905Z,326.25
2018-07-09T11:07:16.928Z,331.88
2018-07-09T11:08:16.948Z,320.63
2018-07-09T11:09:16.968Z,309.38
2018-07-09T11:10:16.999Z,303.75
2018-07-09T11:11:17.018Z,292.50
2018-07-09T11:12:17.043Z,298.13
2018-07-09T11:13:17.082Z,298.13
2018-07-09T11:14:17.106Z,303.75
2018-07-09T11:15:17.126Z,303.75
2018-07-09T11:16:17.241Z,315.00
2018-07-09T11:17:17.175Z,326.25
2018-07-09T11:18:17.191Z,343.13
2018-07-09T11:19:17.214Z,365.63
2018-07-09T11:20:17.234Z,427.50
2018-07-09T11:21:17.292Z,523.13
2018-07-09T11:22:17.292Z,607.50
2018-07-09T11:23:17.319Z,646.88
2018-07-09T11:24:17.333Z,646.88
2018-07-09T11:25:17.365Z,630.00
2018-07-09T11:26:17.391Z,613.13
2018-07-09T11:27:17.411Z,601.88
2018-07-09T11:28:17.431Z,601.88
2018-07-09T11:29:17.532Z,596.25
2018-07-09T11:30:17.481Z,573.75
2018-07-09T11:31:17.506Z,540.00
2018-07-09T11:32:17.538Z,511.88
2018-07-09T11:33:17.545Z,517.50
2018-07-09T11:34:17.574Z,517.50
2018-07-09T11:35:17.602Z,472.50
2018-07-09T11:36:17.627Z,421.88
2018-07-09T11:37:17.668Z,382.50
2018-07-09T11:38:17.668Z,348.75
2018-07-09T11:39:17.687Z,309.38
2018-07-09T11:40:17.712Z,292.50
2018-07-09T11:41:17.742Z,258.75
2018-07-09T11:42:17.761Z,247.50
2018-07-09T11:43:17.788Z,241.88
2018-07-09T11:44:17.815Z,236.25
2018-07-09T11:45:17.832Z,230.63
2018-07-09T11:46:17.859Z,213.75
2018-07-09T11:47:17.879Z,196.88
2018-07-09T11:48:17.900Z,191.25
2018-07-09T11:49:17.926Z,202.50
2018-07-09T11:50:17.956Z,219.38
2018-07-09T11:51:17.978Z,230.63
2018-07-09T11:52:17.995Z,253.13
2018-07-09T11:53:18.018Z,281.25
2018-07-09T11:54:18.045Z,326.25
2018-07-09T11:55:18.071Z,399.38
2018-07-09T11:56:18.094Z,489.38
2018-07-09T11:57:18.113Z,562.50
2018-07-09T11:58:18.149Z,613.13
2018-07-09T11:59:18.166Z,641.25
2018-07-09T12:00:18.189Z,630.00
2018-07-09T12:01:18.208Z,618.75
2018-07-09T12:02:18.232Z,613.13
2018-07-09T12:03:18.258Z,630.00
2018-07-09T12:04:18.300Z,669.38
2018-07-09T12:05:18.311Z,697.50
2018-07-09T12:06:18.328Z,697.50
2018-07-09T12:07:18.346Z,669.38
2018-07-09T12:08:18.394Z,641.25
2018-07-09T12:09:18.410Z,624.38
2018-07-09T12:10:18.421Z,596.25
2018-07-09T12:11:18.468Z,596.25
2018-07-09T12:12:18.468Z,607.50
2018-07-09T12:13:18.497Z,601.88
2018-07-09T12:14:18.520Z,551.25
2018-07-09T12:15:18.543Z,489.38
2018-07-09T12:16:18.565Z,410.63
2018-07-09T12:17:18.600Z,348.75
2018-07-09T12:18:18.618Z,298.13
2018-07-09T12:19:18.640Z,241.88
2018-07-09T12:20:18.683Z,196.88
2018-07-09T12:21:18.700Z,157.50
2018-07-09T12:22:18.713Z,135.00
2018-07-09T12:23:18.738Z,118.13
2018-07-09T12:24:18.754Z,106.88
2018-07-09T12:25:18.779Z,101.25
2018-07-09T12:26:18.801Z,95.63
2018-07-09T12:27:18.829Z,95.63
2018-07-09T12:28:18.857Z,95.63
2018-07-09T12:29:18.876Z,106.88
2018-07-09T12:30:18.898Z,118.13
2018-07-09T12:31:18.919Z,129.38
2018-07-09T12:32:18.964Z,140.63
2018-07-09T12:33:18.977Z,157.50
2018-07-09T12:34:18.993Z,174.38
2018-07-09T12:35:19.024Z,196.88
2018-07-09T12:36:19.153Z,202.50
2018-07-09T12:37:19.064Z,202.50